CheckWX is a tool to help pilots better visualize weather data.  It is not intended as a substitute for an official pre-flight weather briefing.

19:15:20 UTC

KARA METAR
Acadiana Regional Airport
New Iberia, Louisiana, USA
Current

22 mins ago

KARA 261853Z 18007G16KT 10SM CLR 32/21 A3012 RMK AO2 SLP198 T03170206
Observed
May-26 @ 18:53 UTC
Wind
  • 180° at 7 KTS
  • Gusting to 16 KTS
Visibility
10 SM
Flight Rules
VFR
Cloud Levels
  • Clear skies
Temperature
32°C / 90°F
Dewpoint
21°C / 70°F
Heat Index
36°C / 96°F
Humidity
52%
Altimeter
30.12" Hg
Pressure
1020.02 hPa
Previous

1 hour ago

KARA 261753Z 16006KT 10SM SCT043 SCT060 31/21 A3013 RMK AO2 SLP203 T03110211 10311 20239 56004
Observed
May-26 @ 17:53 UTC
Wind
  • 160° at 6 KTS
Visibility
10 SM
Flight Rules
VFR
Cloud Levels
  • Scattered at 4,300' AGL
  • Scattered at 6,000' AGL
Temperature
31°C / 88°F
Dewpoint
21°C / 70°F
Heat Index
34°C / 93°F
Humidity
55%
Altimeter
30.13" Hg
Pressure
1020.32 hPa
Previous

2 hours ago

KARA 261653Z 19006KT 10SM FEW036 30/21 A3014 RMK AO2 SLP204 T03000211
Observed
May-26 @ 16:53 UTC
Wind
  • 190° at 6 KTS
Visibility
10 SM
Flight Rules
VFR
Cloud Levels
  • Few at 3,600' AGL
Temperature
30°C / 86°F
Dewpoint
21°C / 70°F
Heat Index
33°C / 91°F
Humidity
59%
Altimeter
30.14" Hg
Pressure
1020.62 hPa